Main page
METAR-TAF:

METAR-TAF

Airports :

Heathrow Airport

London-Heathrow, England

latitude: 51-29N, longitude: 000-27W, elevation: 24 m

Current weather observation

The report was made 36 minutes ago, at 22:50 UTC
Wind 3 kt from the North/Northeast
Temperature 17°C
Humidity 55%
Pressure 1001 hPa
Visibility 10 km or more

METAR: EGLL 222250Z AUTO 02003KT 9999 NCD 17/08 Q1001 NOSIG

Time: 00:26 (23:26 UTC)

Forecast

The report was made 6 hours and 36 minutes ago, at 16:50 UTC
Forecast valid from 22 at 18 UTC to 23 at 24 UTC
Wind 10 kt from the South/Southeast
Visibility 10 km or more
no clouds below 1500 m and no cumulonimbus
Becoming
from 22 at 21 UTC to 22 at 24 UTC
Wind 3 kt from the North/Northeast
Probability 40%
from 22 at 22 UTC to 23 at 08 UTC
Visibility: 6000 m
Becoming
from 23 at 12 UTC to 23 at 15 UTC
Wind 10 kt from the East

TAF: EGLL 221650Z 2218/2324 16010KT CAVOK BECMG 2221/2224 03003KT PROB40 2222/2308 6000 BECMG 2312/2315 09010KT

Weather observations and forecasts of more than 4000 airports (METAR and TAF reports).

The available stations are represented by yellow and red dots on the map.

Hover mouse over dot to see the name of the station.

Then click to see weather observations and forecasts.

To change the map : click on the green buttons with a black cross to zoom in, on the green button with a dash to zoom out, or on the green arrows for adjacent maps.


METAR-TAF: